KLM192 NTAA-NTTB
Flight info
| Callsign | KLM192 |
|---|---|
| Flight time | 0h 33m |
| Altitude | 20000 |
| Route | VAITE4W VAITE DCT HHN RU1B |
| Aircraft | A319/M-SDE3FGHIRWY/LB1 |
Departure
| Time | 2026-04-24 01:01 |
|---|---|
| Airport | Fa'a'ā International Airport (NTAA) |
Arrival
| Time | 2026-04-24 01:34 |
|---|---|
| Airport | Bora Bora Airport (NTTB) |
| Time | Latitude | Longitude | Altitude | Speed | Heading |
|---|---|---|---|---|---|
| 2026-04-24 00:40 | -17.55907 | -149.61136 | 24 ft | 0 kts | 324° |
| 2026-04-24 00:52 | -17.55924 | -149.61127 | 22 ft | 4 kts | 14° |
| 2026-04-24 00:52 | -17.55942 | -149.61140 | 22 ft | 2 kts | 54° |
| 2026-04-24 00:52 | -17.55943 | -149.61141 | 22 ft | 0 kts | 54° |
| 2026-04-24 00:56 | -17.55914 | -149.61108 | 22 ft | 12 kts | 24° |
| 2026-04-24 00:56 | -17.55840 | -149.61113 | 21 ft | 10 kts | 24° |
| 2026-04-24 00:56 | -17.55778 | -149.61077 | 23 ft | 11 kts | 1° |
| 2026-04-24 00:56 | -17.55707 | -149.61113 | 22 ft | 12 kts | 326° |
| 2026-04-24 00:57 | -17.55633 | -149.61103 | 21 ft | 13 kts | 49° |
| 2026-04-24 00:57 | -17.55575 | -149.61019 | 23 ft | 17 kts | 53° |
| 2026-04-24 00:57 | -17.55408 | -149.60776 | 22 ft | 21 kts | 54° |
| 2026-04-24 00:58 | -17.55320 | -149.60649 | 23 ft | 22 kts | 54° |
| 2026-04-24 00:58 | -17.55231 | -149.60518 | 22 ft | 23 kts | 54° |
| 2026-04-24 00:58 | -17.55137 | -149.60383 | 21 ft | 23 kts | 54° |
| 2026-04-24 00:58 | -17.55041 | -149.60242 | 20 ft | 24 kts | 54° |
| 2026-04-24 00:59 | -17.54940 | -149.60097 | 21 ft | 24 kts | 54° |
| 2026-04-24 00:59 | -17.54843 | -149.59955 | 19 ft | 24 kts | 54° |
| 2026-04-24 00:59 | -17.54744 | -149.59811 | 21 ft | 24 kts | 54° |
| 2026-04-24 00:59 | -17.54645 | -149.59668 | 20 ft | 25 kts | 54° |
| 2026-04-24 01:00 | -17.54545 | -149.59523 | 21 ft | 21 kts | 54° |
| 2026-04-24 01:00 | -17.54519 | -149.59427 | 19 ft | 11 kts | 88° |
| 2026-04-24 01:00 | -17.54489 | -149.59438 | 19 ft | 8 kts | 264° |
| 2026-04-24 01:00 | -17.54520 | -149.59488 | 20 ft | 9 kts | 234° |
| 2026-04-24 01:01 | -17.54659 | -149.59689 | 20 ft | 77 kts | 234° |
| 2026-04-24 01:01 | -17.55140 | -149.60388 | 21 ft | 156 kts | 234° |
| 2026-04-24 01:01 | -17.55832 | -149.61401 | 556 ft | 171 kts | 233° |
| 2026-04-24 01:01 | -17.56526 | -149.62414 | 1461 ft | 171 kts | 232° |
| 2026-04-24 01:02 | -17.57224 | -149.63425 | 2357 ft | 171 kts | 232° |
| 2026-04-24 01:02 | -17.57930 | -149.64442 | 3135 ft | 179 kts | 232° |
| 2026-04-24 01:02 | -17.58694 | -149.65558 | 3564 ft | 198 kts | 236° |
| 2026-04-24 01:02 | -17.59047 | -149.66993 | 3737 ft | 216 kts | 275° |
| 2026-04-24 01:03 | -17.58426 | -149.68473 | 4178 ft | 232 kts | 314° |
| 2026-04-24 01:03 | -17.57050 | -149.69302 | 5020 ft | 231 kts | 350° |
| 2026-04-24 01:03 | -17.55452 | -149.69301 | 5888 ft | 230 kts | 5° |
| 2026-04-24 01:03 | -17.53853 | -149.69159 | 6715 ft | 231 kts | 5° |
| 2026-04-24 01:04 | -17.52244 | -149.69007 | 7497 ft | 234 kts | 5° |
| 2026-04-24 01:04 | -17.50611 | -149.68857 | 8226 ft | 238 kts | 5° |
| 2026-04-24 01:04 | -17.48946 | -149.68708 | 8935 ft | 242 kts | 4° |
| 2026-04-24 01:04 | -17.47257 | -149.68561 | 9638 ft | 245 kts | 4° |
| 2026-04-24 01:05 | -17.45549 | -149.68534 | 10335 ft | 247 kts | 351° |
| 2026-04-24 01:05 | -17.43891 | -149.69053 | 10885 ft | 257 kts | 332° |
| 2026-04-24 01:05 | -17.42360 | -149.70151 | 11118 ft | 278 kts | 320° |
| 2026-04-24 01:05 | -17.40776 | -149.71460 | 11351 ft | 302 kts | 320° |
| 2026-04-24 01:06 | -17.39059 | -149.72876 | 11547 ft | 326 kts | 320° |
| 2026-04-24 01:06 | -17.37215 | -149.74391 | 11697 ft | 349 kts | 321° |
| 2026-04-24 01:06 | -17.35247 | -149.75999 | 11985 ft | 365 kts | 321° |
| 2026-04-24 01:06 | -17.33224 | -149.77642 | 12539 ft | 371 kts | 321° |
| 2026-04-24 01:07 | -17.31168 | -149.79307 | 13144 ft | 376 kts | 321° |
| 2026-04-24 01:07 | -17.29091 | -149.80989 | 13747 ft | 380 kts | 321° |
| 2026-04-24 01:07 | -17.26987 | -149.82691 | 14338 ft | 384 kts | 321° |
| 2026-04-24 01:07 | -17.24864 | -149.84405 | 14909 ft | 388 kts | 321° |
| 2026-04-24 01:08 | -17.22721 | -149.86138 | 15468 ft | 391 kts | 321° |
| 2026-04-24 01:08 | -17.20557 | -149.87891 | 16005 ft | 395 kts | 321° |
| 2026-04-24 01:08 | -17.18376 | -149.89662 | 16543 ft | 399 kts | 321° |
| 2026-04-24 01:08 | -17.16171 | -149.91449 | 17075 ft | 402 kts | 321° |
| 2026-04-24 01:09 | -17.13948 | -149.93249 | 17589 ft | 406 kts | 321° |
| 2026-04-24 01:09 | -17.11704 | -149.95070 | 18107 ft | 410 kts | 320° |
| 2026-04-24 01:09 | -17.09642 | -149.97132 | 18591 ft | 412 kts | 309° |
| 2026-04-24 01:09 | -17.07969 | -149.99569 | 19096 ft | 414 kts | 298° |
| 2026-04-24 01:10 | -17.06738 | -150.02287 | 19593 ft | 415 kts | 289° |
| 2026-04-24 01:10 | -17.05676 | -150.05095 | 19862 ft | 415 kts | 289° |
| 2026-04-24 01:10 | -17.04599 | -150.07924 | 19924 ft | 425 kts | 290° |
| 2026-04-24 01:10 | -17.03493 | -150.10810 | 19925 ft | 430 kts | 290° |
| 2026-04-24 01:11 | -17.02373 | -150.13711 | 19925 ft | 431 kts | 290° |
| 2026-04-24 01:11 | -17.01248 | -150.16616 | 19924 ft | 431 kts | 290° |
| 2026-04-24 01:11 | -17.00125 | -150.19522 | 19925 ft | 431 kts | 290° |
| 2026-04-24 01:11 | -16.99004 | -150.22427 | 19924 ft | 431 kts | 290° |
| 2026-04-24 01:12 | -16.97886 | -150.25332 | 19924 ft | 431 kts | 290° |
| 2026-04-24 01:12 | -16.96766 | -150.28241 | 19925 ft | 431 kts | 290° |
| 2026-04-24 01:12 | -16.95651 | -150.31144 | 19924 ft | 431 kts | 290° |
| 2026-04-24 01:12 | -16.94534 | -150.34056 | 19926 ft | 432 kts | 290° |
| 2026-04-24 01:13 | -16.93417 | -150.36961 | 19929 ft | 432 kts | 290° |
| 2026-04-24 01:13 | -16.92293 | -150.39869 | 19932 ft | 432 kts | 290° |
| 2026-04-24 01:13 | -16.91166 | -150.42778 | 19935 ft | 432 kts | 290° |
| 2026-04-24 01:13 | -16.90039 | -150.45688 | 19935 ft | 432 kts | 290° |
| 2026-04-24 01:14 | -16.88915 | -150.48595 | 19935 ft | 432 kts | 290° |
| 2026-04-24 01:14 | -16.87790 | -150.51502 | 19933 ft | 432 kts | 290° |
| 2026-04-24 01:14 | -16.86664 | -150.54412 | 19931 ft | 432 kts | 290° |
| 2026-04-24 01:14 | -16.85538 | -150.57318 | 19929 ft | 432 kts | 290° |
| 2026-04-24 01:15 | -16.84412 | -150.60225 | 19927 ft | 432 kts | 290° |
| 2026-04-24 01:15 | -16.83288 | -150.63132 | 19923 ft | 432 kts | 290° |
| 2026-04-24 01:15 | -16.82163 | -150.66037 | 19921 ft | 432 kts | 290° |
| 2026-04-24 01:15 | -16.81039 | -150.68937 | 19919 ft | 432 kts | 290° |
| 2026-04-24 01:16 | -16.79912 | -150.71840 | 19918 ft | 431 kts | 290° |
| 2026-04-24 01:16 | -16.78783 | -150.74740 | 19917 ft | 431 kts | 290° |
| 2026-04-24 01:16 | -16.77671 | -150.77603 | 19917 ft | 431 kts | 290° |
| 2026-04-24 01:16 | -16.76548 | -150.80502 | 19915 ft | 431 kts | 290° |
| 2026-04-24 01:17 | -16.75424 | -150.83400 | 19917 ft | 431 kts | 290° |
| 2026-04-24 01:17 | -16.74299 | -150.86297 | 19920 ft | 431 kts | 290° |
| 2026-04-24 01:17 | -16.73173 | -150.89190 | 19920 ft | 431 kts | 290° |
| 2026-04-24 01:17 | -16.72047 | -150.92084 | 19920 ft | 430 kts | 290° |
| 2026-04-24 01:18 | -16.71287 | -150.94035 | 19917 ft | 430 kts | 290° |
| 2026-04-24 01:18 | -16.70160 | -150.96926 | 19910 ft | 430 kts | 290° |
| 2026-04-24 01:18 | -16.69234 | -150.99879 | 19907 ft | 427 kts | 281° |
| 2026-04-24 01:18 | -16.68815 | -151.02934 | 19905 ft | 425 kts | 271° |
| 2026-04-24 01:19 | -16.68887 | -151.06003 | 19903 ft | 422 kts | 264° |
| 2026-04-24 01:19 | -16.69100 | -151.09059 | 19901 ft | 423 kts | 264° |
| 2026-04-24 01:19 | -16.69305 | -151.12117 | 19901 ft | 423 kts | 264° |
| 2026-04-24 01:19 | -16.69506 | -151.15181 | 19897 ft | 423 kts | 264° |
| 2026-04-24 01:20 | -16.69707 | -151.18244 | 19898 ft | 423 kts | 264° |
| 2026-04-24 01:20 | -16.69904 | -151.21267 | 19901 ft | 424 kts | 264° |
| 2026-04-24 01:20 | -16.70106 | -151.24335 | 19904 ft | 424 kts | 264° |
| 2026-04-24 01:20 | -16.70311 | -151.27400 | 19909 ft | 424 kts | 264° |
| 2026-04-24 01:21 | -16.70521 | -151.30461 | 19911 ft | 424 kts | 263° |
| 2026-04-24 01:21 | -16.70788 | -151.33518 | 19493 ft | 422 kts | 262° |
| 2026-04-24 01:21 | -16.71114 | -151.36558 | 18895 ft | 420 kts | 261° |
| 2026-04-24 01:21 | -16.71464 | -151.39561 | 18368 ft | 416 kts | 261° |
| 2026-04-24 01:22 | -16.71673 | -151.42558 | 17824 ft | 415 kts | 270° |
| 2026-04-24 01:22 | -16.71245 | -151.45525 | 17261 ft | 415 kts | 284° |
| 2026-04-24 01:22 | -16.70137 | -151.48294 | 16699 ft | 415 kts | 299° |
| 2026-04-24 01:22 | -16.68425 | -151.50708 | 16124 ft | 414 kts | 312° |
| 2026-04-24 01:23 | -16.66391 | -151.52815 | 15554 ft | 411 kts | 315° |
| 2026-04-24 01:23 | -16.64356 | -151.54904 | 14945 ft | 409 kts | 314° |
| 2026-04-24 01:23 | -16.62337 | -151.56979 | 14352 ft | 406 kts | 314° |
| 2026-04-24 01:23 | -16.60333 | -151.59041 | 13761 ft | 403 kts | 314° |
| 2026-04-24 01:24 | -16.58349 | -151.61089 | 13169 ft | 400 kts | 314° |
| 2026-04-24 01:24 | -16.56382 | -151.63124 | 12565 ft | 396 kts | 314° |
| 2026-04-24 01:24 | -16.54438 | -151.65138 | 11951 ft | 392 kts | 314° |
| 2026-04-24 01:24 | -16.52514 | -151.67129 | 11341 ft | 387 kts | 314° |
| 2026-04-24 01:25 | -16.50614 | -151.69091 | 10744 ft | 382 kts | 314° |
| 2026-04-24 01:25 | -16.48748 | -151.71013 | 10472 ft | 369 kts | 314° |
| 2026-04-24 01:25 | -16.46968 | -151.72843 | 10347 ft | 352 kts | 314° |
| 2026-04-24 01:25 | -16.45178 | -151.74497 | 10220 ft | 338 kts | 324° |
| 2026-04-24 01:26 | -16.43142 | -151.75619 | 10094 ft | 326 kts | 338° |
| 2026-04-24 01:26 | -16.40983 | -151.76195 | 9967 ft | 314 kts | 347° |
| 2026-04-24 01:26 | -16.38883 | -151.76637 | 9578 ft | 304 kts | 347° |
| 2026-04-24 01:26 | -16.36819 | -151.77080 | 9234 ft | 301 kts | 347° |
| 2026-04-24 01:27 | -16.34800 | -151.77516 | 8846 ft | 300 kts | 346° |
| 2026-04-24 01:27 | -16.32766 | -151.77958 | 8449 ft | 296 kts | 345° |
| 2026-04-24 01:27 | -16.30857 | -151.78676 | 7849 ft | 290 kts | 329° |
| 2026-04-24 01:27 | -16.29253 | -151.79900 | 7197 ft | 285 kts | 313° |
| 2026-04-24 01:28 | -16.28033 | -151.81490 | 6532 ft | 280 kts | 303° |
| 2026-04-24 01:28 | -16.26935 | -151.83155 | 5843 ft | 279 kts | 303° |
| 2026-04-24 01:28 | -16.25996 | -151.84891 | 5219 ft | 272 kts | 285° |
| 2026-04-24 01:28 | -16.25873 | -151.86818 | 4675 ft | 268 kts | 258° |
| 2026-04-24 01:29 | -16.26643 | -151.88573 | 4110 ft | 270 kts | 230° |
| 2026-04-24 01:29 | -16.28091 | -151.89803 | 3637 ft | 268 kts | 213° |
| 2026-04-24 01:29 | -16.29643 | -151.90890 | 3065 ft | 267 kts | 213° |
| 2026-04-24 01:29 | -16.31266 | -151.91694 | 2735 ft | 248 kts | 188° |
| 2026-04-24 01:30 | -16.32895 | -151.91554 | 2639 ft | 230 kts | 158° |
| 2026-04-24 01:30 | -16.34140 | -151.90608 | 2531 ft | 218 kts | 129° |
| 2026-04-24 01:30 | -16.34994 | -151.89359 | 2435 ft | 205 kts | 125° |
| 2026-04-24 01:30 | -16.35782 | -151.88175 | 2346 ft | 194 kts | 125° |
| 2026-04-24 01:31 | -16.36543 | -151.87030 | 2265 ft | 187 kts | 125° |
| 2026-04-24 01:31 | -16.37243 | -151.85978 | 2171 ft | 169 kts | 125° |
| 2026-04-24 01:31 | -16.37879 | -151.85023 | 2094 ft | 153 kts | 125° |
| 2026-04-24 01:31 | -16.38466 | -151.84140 | 2015 ft | 146 kts | 125° |
| 2026-04-24 01:32 | -16.39036 | -151.83278 | 1807 ft | 143 kts | 125° |
| 2026-04-24 01:32 | -16.39580 | -151.82456 | 1608 ft | 134 kts | 124° |
| 2026-04-24 01:32 | -16.40102 | -151.81669 | 1427 ft | 131 kts | 124° |
| 2026-04-24 01:32 | -16.40615 | -151.80896 | 1255 ft | 129 kts | 124° |
| 2026-04-24 01:33 | -16.41124 | -151.80130 | 1074 ft | 128 kts | 124° |
| 2026-04-24 01:33 | -16.41631 | -151.79366 | 894 ft | 128 kts | 124° |
| 2026-04-24 01:33 | -16.42136 | -151.78606 | 720 ft | 128 kts | 124° |
| 2026-04-24 01:33 | -16.42641 | -151.77844 | 550 ft | 128 kts | 124° |
| 2026-04-24 01:34 | -16.43151 | -151.77085 | 331 ft | 128 kts | 124° |
| 2026-04-24 01:34 | -16.43651 | -151.76317 | 119 ft | 128 kts | 125° |
| 2026-04-24 01:34 | -16.44153 | -151.75560 | 31 ft | 125 kts | 124° |
| 2026-04-24 01:34 | -16.44503 | -151.75030 | 28 ft | 32 kts | 125° |
| 2026-04-24 01:35 | -16.44566 | -151.74954 | 28 ft | 7 kts | 145° |
| 2026-04-24 01:35 | -16.44552 | -151.74951 | 28 ft | 5 kts | 326° |
| 2026-04-24 01:35 | -16.44516 | -151.75005 | 28 ft | 15 kts | 306° |
| 2026-04-24 01:35 | -16.44451 | -151.75106 | 27 ft | 18 kts | 304° |
| 2026-04-24 01:36 | -16.44388 | -151.75202 | 27 ft | 15 kts | 304° |
| 2026-04-24 01:36 | -16.44405 | -151.75276 | 29 ft | 13 kts | 214° |
| 2026-04-24 01:36 | -16.44477 | -151.75328 | 25 ft | 13 kts | 214° |
| 2026-04-24 01:36 | -16.44538 | -151.75375 | 27 ft | 8 kts | 226° |
| 2026-04-24 01:37 | -16.44535 | -151.75397 | 25 ft | 4 kts | 292° |
| 2026-04-24 01:37 | -16.44515 | -151.75432 | 25 ft | 6 kts | 305° |
| 2026-04-24 01:37 | -16.44499 | -151.75472 | 26 ft | 6 kts | 256° |
| 2026-04-24 01:37 | -16.44530 | -151.75484 | 25 ft | 6 kts | 147° |
| 2026-04-24 01:38 | -16.44549 | -151.75456 | 25 ft | 4 kts | 124° |
| 2026-04-24 01:38 | -16.44555 | -151.75447 | 25 ft | 0 kts | 125° |